Time;durP1;ratioP1;P1;durP2;ratioP2;P2;SDS_P1;SDS_P2;PMS_P1;PMS_P2;Temp;Humidity;BMP_temperature;BMP_pressure;BME280_temperature;BME280_humidity;BME280_pressure;Samples;Min_cycle;Max_cycle;Signal;HPM_P1;HPM_P2
2022/09/22 00:01:18;;;;;;;7.72;5.05;;;;;;;5.86;100.00;102636.22;5075398;28;20035;-71
2022/09/22 00:03:47;;;;;;;12.10;7.45;;;;;;;5.90;100.00;102640.47;5075798;28;20028;-72
2022/09/22 00:06:21;;;;;;;9.57;6.28;;;;;;;5.91;100.00;102628.09;5074813;28;20024;-71
2022/09/22 00:08:52;;;;;;;9.65;6.65;;;;;;;5.87;100.00;102632.69;5074940;28;20029;-71
2022/09/22 00:11:27;;;;;;;12.48;6.30;;;;;;;5.85;100.00;102629.22;5075074;28;20036;-73
2022/09/22 00:14:06;;;;;;;8.57;5.93;;;;;;;5.78;100.00;102636.56;5074995;28;20115;-71
2022/09/22 00:16:36;;;;;;;8.88;5.70;;;;;;;5.73;100.00;102624.47;5075029;28;20445;-72
2022/09/22 00:19:04;;;;;;;10.65;6.05;;;;;;;5.71;100.00;102627.16;5075446;28;20040;-72
2022/09/22 00:21:29;;;;;;;9.65;6.80;;;;;;;5.73;100.00;102625.34;5076526;28;20029;-72
2022/09/22 00:23:55;;;;;;;8.50;5.38;;;;;;;5.72;100.00;102623.59;5079907;28;20040;-72
2022/09/22 00:26:22;;;;;;;10.82;6.82;;;;;;;5.70;100.00;102619.31;5081892;28;20032;-71
2022/09/22 00:28:50;;;;;;;15.15;6.47;;;;;;;5.68;100.00;102629.09;5076564;28;20028;-73
2022/09/22 00:31:21;;;;;;;5.70;4.80;;;;;;;5.62;100.00;102622.28;5077212;28;20052;-71
2022/09/22 00:33:47;;;;;;;;;;;;;;;5.62;100.00;102617.00;5077414;28;20028;-71
2022/09/22 00:36:15;;;;;;;9.13;6.30;;;;;;;5.65;100.00;102630.06;5075488;28;20244;-71
2022/09/22 00:38:41;;;;;;;13.20;7.38;;;;;;;5.67;100.00;102620.28;5074871;28;20032;-71
2022/09/22 00:41:14;;;;;;;12.15;7.88;;;;;;;5.68;100.00;102611.44;5073779;28;20024;-72
2022/09/22 00:43:40;;;;;;;13.93;8.10;;;;;;;5.70;100.00;102616.66;5074539;28;20060;-72
2022/09/22 00:46:16;;;;;;;12.10;7.72;;;;;;;5.70;100.00;102617.50;5074600;28;20072;-72
2022/09/22 00:48:49;;;;;;;12.27;7.03;;;;;;;5.67;100.00;102611.50;5074123;28;20038;-72
2022/09/22 00:51:19;;;;;;;12.00;7.28;;;;;;;5.68;100.00;102610.59;5074115;28;20049;-72
2022/09/22 00:53:45;;;;;;;14.15;7.68;;;;;;;5.64;100.00;102608.09;5074230;28;20044;-72
2022/09/22 00:56:29;;;;;;;15.10;7.78;;;;;;;5.63;100.00;102605.50;5074257;28;20032;-72
2022/09/22 00:59:02;;;;;;;11.57;6.35;;;;;;;5.61;100.00;102607.34;5073945;28;20033;-72
2022/09/22 01:01:27;;;;;;;6.50;5.10;;;;;;;5.55;100.00;102602.31;5073989;28;20078;-72
2022/09/22 01:03:55;;;;;;;14.13;6.60;;;;;;;5.53;100.00;102590.97;5074104;28;20032;-72
2022/09/22 01:06:25;;;;;;;16.48;7.53;;;;;;;5.56;100.00;102602.25;5056394;28;20128;-72
2022/09/22 01:08:51;;;;;;;9.60;6.47;;;;;;;5.56;100.00;102593.47;5074051;28;20040;-72
2022/09/22 01:11:19;;;;;;;10.45;7.10;;;;;;;5.55;100.00;102597.03;5073559;28;20481;-72
2022/09/22 01:14:17;;;;;;;12.32;8.35;;;;;;;5.53;100.00;102590.97;5075446;28;20039;-72
2022/09/22 01:16:48;;;;;;;6.95;5.72;;;;;;;5.49;100.00;102587.56;5073832;28;20063;-73
2022/09/22 01:19:21;;;;;;;11.70;6.90;;;;;;;5.41;100.00;102585.25;5074454;28;20032;-72
2022/09/22 01:22:02;;;;;;;11.43;6.32;;;;;;;5.38;100.00;102584.53;5073777;28;20133;-73
2022/09/22 01:25:00;;;;;;;7.78;4.75;;;;;;;5.30;100.00;102582.22;5073340;28;20029;-72
2022/09/22 01:27:47;;;;;;;6.93;4.40;;;;;;;5.23;100.00;102580.72;5073740;28;20032;-72
2022/09/22 01:30:22;;;;;;;10.20;6.75;;;;;;;5.17;100.00;102573.06;5073440;28;20031;-72
2022/09/22 01:33:00;;;;;;;5.90;4.30;;;;;;;5.16;100.00;102581.91;5073787;28;20039;-72
2022/09/22 01:35:33;;;;;;;14.80;8.23;;;;;;;5.17;100.00;102576.56;5073450;28;20099;-72
2022/09/22 01:38:20;;;;;;;18.08;8.05;;;;;;;5.26;100.00;102572.69;5072985;28;20031;-72
2022/09/22 01:40:53;;;;;;;8.40;6.55;;;;;;;5.24;100.00;102564.84;5073508;28;20028;-73
2022/09/22 01:43:27;;;;;;;10.23;6.10;;;;;;;5.21;100.00;102566.72;5073737;28;20028;-72
2022/09/22 01:45:53;;;;;;;9.00;6.47;;;;;;;5.16;100.00;102566.91;5055164;28;20059;-72
2022/09/22 01:48:24;;;;;;;9.75;6.72;;;;;;;5.15;100.00;102561.69;5073626;28;20075;-72
2022/09/22 01:51:11;;;;;;;10.52;5.68;;;;;;;5.12;100.00;102553.00;5073374;28;20115;-72
2022/09/22 01:53:42;;;;;;;14.13;8.68;;;;;;;5.21;100.00;102550.88;5073797;28;20036;-71
2022/09/22 01:56:12;;;;;;;15.32;9.52;;;;;;;5.26;100.00;102549.78;5073722;28;20108;-71
2022/09/22 01:58:56;;;;;;;13.15;7.22;;;;;;;5.24;100.00;102543.72;5073311;28;20103;-72
2022/09/22 02:01:38;;;;;;;11.15;7.50;;;;;;;5.18;100.00;102549.25;5072958;28;20036;-72
2022/09/22 02:04:18;;;;;;;8.73;5.47;;;;;;;5.10;100.00;102546.06;5073541;28;20052;-72
2022/09/22 02:06:57;;;;;;;9.75;7.55;;;;;;;5.04;100.00;102539.22;5073734;28;20025;-72
2022/09/22 02:09:25;;;;;;;11.10;7.97;;;;;;;5.07;100.00;102538.25;5073645;28;20039;-72
2022/09/22 02:11:50;;;;;;;13.07;9.95;;;;;;;5.12;100.00;102544.22;5072566;28;20123;-72
2022/09/22 02:14:16;;;;;;;14.15;8.57;;;;;;;5.12;100.00;102542.44;5073433;28;20041;-72
2022/09/22 02:16:41;;;;;;;8.45;6.70;;;;;;;5.09;100.00;102536.41;5072691;28;20021;-73
2022/09/22 02:19:13;;;;;;;14.40;9.02;;;;;;;5.04;100.00;102539.22;5073204;28;20025;-72
2022/09/22 02:21:39;;;;;;;7.15;5.40;;;;;;;4.98;100.00;102541.28;5072810;28;20029;-72
2022/09/22 02:24:06;;;;;;;16.00;9.32;;;;;;;4.97;100.00;102539.53;5073202;28;20098;-72
2022/09/22 02:26:35;;;;;;;15.25;8.65;;;;;;;5.02;100.00;102542.88;5072725;28;20479;-72
2022/09/22 02:29:07;;;;;;;20.95;11.48;;;;;;;5.08;100.00;102535.56;5072765;28;20040;-72
2022/09/22 02:31:36;;;;;;;17.98;10.77;;;;;;;5.13;100.00;102530.09;5072721;28;20056;-72
2022/09/22 02:34:05;;;;;;;12.48;9.30;;;;;;;5.12;100.00;102534.53;5072640;28;20032;-73
2022/09/22 02:36:50;;;;;;;11.98;8.77;;;;;;;5.09;100.00;102533.78;5072746;28;20423;-72
2022/09/22 02:39:26;;;;;;;11.73;7.25;;;;;;;5.00;100.00;102529.75;5055231;28;20032;-72
2022/09/22 02:42:23;;;;;;;12.23;8.88;;;;;;;4.96;100.00;102528.16;5072822;28;20029;-73
2022/09/22 02:45:07;;;;;;;12.32;9.00;;;;;;;4.98;100.00;102525.44;5072839;28;20419;-72
2022/09/22 02:47:39;;;;;;;10.65;6.22;;;;;;;4.90;100.00;102523.97;5072584;28;20032;-72
2022/09/22 02:50:07;;;;;;;;;;;;;;;4.90;100.00;102526.59;5073367;28;20035;-72
2022/09/22 02:52:35;;;;;;;10.20;7.72;;;;;;;4.90;100.00;102518.69;5073543;28;20003;-72
2022/09/22 02:55:00;;;;;;;19.08;10.23;;;;;;;4.94;100.00;102515.03;5072988;28;20036;-72
2022/09/22 02:57:26;;;;;;;17.23;10.40;;;;;;;4.96;100.00;102517.59;5072556;28;20127;-72
2022/09/22 02:59:51;;;;;;;11.32;6.93;;;;;;;4.91;100.00;102523.06;5072444;28;20119;-73
2022/09/22 03:02:16;;;;;;;9.70;6.63;;;;;;;4.86;100.00;102521.50;5072539;28;20441;-72
2022/09/22 03:04:42;;;;;;;11.55;6.18;;;;;;;4.78;100.00;102513.91;5075391;28;20491;-72
2022/09/22 03:07:07;;;;;;;12.05;8.85;;;;;;;4.76;100.00;102515.72;5076366;28;20036;-72
2022/09/22 03:09:33;;;;;;;9.25;7.32;;;;;;;4.73;100.00;102518.50;5076578;28;20032;-72
2022/09/22 03:11:58;;;;;;;9.88;8.10;;;;;;;4.73;100.00;102516.72;5075646;28;20044;-72
2022/09/22 03:14:23;;;;;;;15.05;8.15;;;;;;;4.72;100.00;102514.16;5057893;28;20029;-72
2022/09/22 03:16:49;;;;;;;9.38;7.40;;;;;;;4.72;100.00;102514.16;5075953;28;20063;-72
2022/09/22 03:19:14;;;;;;;8.85;6.13;;;;;;;4.68;100.00;102508.13;5058048;28;20494;-72
2022/09/22 03:21:39;;;;;;;12.13;8.52;;;;;;;4.66;100.00;102506.47;5076003;28;20037;-72
2022/09/22 03:24:05;;;;;;;15.13;9.60;;;;;;;4.67;100.00;102502.91;5075571;28;20039;-73
2022/09/22 03:26:30;;;;;;;14.68;7.45;;;;;;;4.69;100.00;102501.09;5075786;28;20036;-73
2022/09/22 03:28:56;;;;;;;10.20;7.18;;;;;;;4.65;100.00;102496.84;5075867;28;20127;-72
2022/09/22 03:31:21;;;;;;;14.20;8.15;;;;;;;4.62;100.00;102503.09;5058187;28;20064;-73
2022/09/22 03:33:46;;;;;;;13.10;8.93;;;;;;;4.62;100.00;102500.47;5075949;28;20075;-73
2022/09/22 03:36:12;;;;;;;10.85;7.25;;;;;;;4.62;100.00;102497.81;5075401;28;20036;-73
2022/09/22 03:38:38;;;;;;;12.20;8.32;;;;;;;4.63;100.00;102501.31;5075603;28;20028;-73
2022/09/22 03:41:04;;;;;;;11.40;6.68;;;;;;;4.59;100.00;102493.53;5057572;28;20531;-72
2022/09/22 03:43:29;;;;;;;14.52;7.75;;;;;;;4.55;100.00;102498.97;5075784;28;20028;-72
2022/09/22 03:45:57;;;;;;;15.48;8.50;;;;;;;4.56;100.00;102500.69;5076053;28;20038;-73
2022/09/22 03:48:23;;;;;;;12.55;7.80;;;;;;;4.62;100.00;102502.25;5075361;28;20107;-73
2022/09/22 03:50:48;;;;;;;15.82;9.40;;;;;;;4.63;100.00;102502.19;5075142;28;20037;-73
2022/09/22 03:53:14;;;;;;;12.18;7.88;;;;;;;4.60;100.00;102494.41;5075833;28;20135;-72
2022/09/22 03:55:39;;;;;;;14.15;7.05;;;;;;;4.61;100.00;102493.47;5075788;28;20116;-73
2022/09/22 03:58:05;;;;;;;9.98;6.70;;;;;;;4.57;100.00;102492.72;5075130;28;20044;-73
2022/09/22 04:00:30;;;;;;;10.15;7.00;;;;;;;4.57;100.00;102490.09;5075713;28;20040;-72
2022/09/22 04:02:57;;;;;;;12.70;8.13;;;;;;;4.58;100.00;102493.56;5074990;28;20082;-73
2022/09/22 04:05:23;;;;;;;12.65;8.20;;;;;;;4.54;100.00;102489.38;5074832;28;20025;-73
2022/09/22 04:07:48;;;;;;;15.85;9.18;;;;;;;4.55;100.00;102494.56;5074871;28;20061;-73
2022/09/22 04:10:13;;;;;;;10.25;7.03;;;;;;;4.54;100.00;102492.00;5074896;28;20470;-72
2022/09/22 04:12:39;;;;;;;10.00;7.13;;;;;;;4.53;100.00;102493.75;5074660;28;20043;-73
2022/09/22 04:15:05;;;;;;;11.85;7.75;;;;;;;4.49;100.00;102492.16;5056619;28;20477;-73
2022/09/22 04:17:30;;;;;;;14.25;8.90;;;;;;;4.49;100.00;102491.31;5075115;28;20064;-72
2022/09/22 04:19:56;;;;;;;9.45;7.03;;;;;;;4.48;100.00;102485.19;5075331;28;20028;-73
2022/09/22 04:22:21;;;;;;;10.77;6.93;;;;;;;4.44;100.00;102488.84;5074735;28;20028;-73
2022/09/22 04:24:47;;;;;;;13.63;8.30;;;;;;;4.48;100.00;102490.47;5074865;28;20060;-72
2022/09/22 04:27:12;;;;;;;11.35;8.25;;;;;;;4.48;100.00;102482.56;5074403;28;20519;-73
2022/09/22 04:29:37;;;;;;;22.13;9.63;;;;;;;4.45;100.00;102487.94;5074776;28;20115;-73
2022/09/22 04:32:03;;;;;;;20.80;11.90;;;;;;;4.46;100.00;102486.16;5075567;28;20036;-73
2022/09/22 04:34:29;;;;;;;11.05;7.80;;;;;;;4.44;100.00;102485.38;5076202;28;20074;-73
2022/09/22 04:36:54;;;;;;;17.27;9.13;;;;;;;4.40;100.00;102482.84;5057558;28;20052;-73
2022/09/22 04:39:19;;;;;;;18.80;10.63;;;;;;;4.40;100.00;102481.97;5075007;28;20052;-73
2022/09/22 04:41:45;;;;;;;13.30;7.70;;;;;;;4.39;100.00;102481.13;5075081;28;20123;-72
2022/09/22 04:44:10;;;;;;;9.65;7.10;;;;;;;4.35;100.00;102478.66;5076127;28;20405;-73
2022/09/22 04:46:35;;;;;;;11.50;7.82;;;;;;;4.30;100.00;102476.22;5075736;28;20036;-73
2022/09/22 04:49:01;;;;;;;19.92;11.25;;;;;;;4.27;100.00;102480.72;5074346;28;20047;-73
2022/09/22 04:51:26;;;;;;;11.45;7.95;;;;;;;4.29;100.00;102478.91;5074519;28;20349;-72
2022/09/22 04:53:51;;;;;;;18.73;9.98;;;;;;;4.27;100.00;102476.31;5074905;28;20028;-71
2022/09/22 04:56:17;;;;;;;13.73;7.10;;;;;;;4.24;100.00;102477.28;5074435;28;20042;-72
2022/09/22 04:58:42;;;;;;;17.83;10.55;;;;;;;4.27;100.00;102471.06;5074474;28;20047;-72
2022/09/22 05:01:08;;;;;;;16.20;10.85;;;;;;;4.28;100.00;102474.53;5074439;28;20037;-72
2022/09/22 05:03:36;;;;;;;11.05;7.95;;;;;;;4.26;100.00;102476.38;5074006;28;20029;-72
2022/09/22 05:06:03;;;;;;;11.98;6.93;;;;;;;4.21;100.00;102481.81;5073523;28;20071;-73
2022/09/22 05:08:29;;;;;;;13.77;8.95;;;;;;;4.20;100.00;102473.03;5073521;28;20540;-72
2022/09/22 05:10:55;;;;;;;13.63;9.10;;;;;;;4.23;100.00;102477.34;5073602;28;20112;-72
2022/09/22 05:13:21;;;;;;;10.02;7.53;;;;;;;4.22;100.00;102475.63;5055786;28;20373;-72
2022/09/22 05:15:46;;;;;;;13.45;7.57;;;;;;;4.18;100.00;102474.00;5073422;28;20059;-72
2022/09/22 05:18:11;;;;;;;14.82;7.97;;;;;;;4.18;100.00;102476.66;5073642;28;20024;-72
2022/09/22 05:20:38;;;;;;;14.95;9.40;;;;;;;4.23;100.00;102477.34;5055568;28;20488;-72
2022/09/22 05:23:05;;;;;;;19.65;10.82;;;;;;;4.24;100.00;102474.66;5039114;28;20033;-73
2022/09/22 05:25:30;;;;;;;18.73;10.07;;;;;;;4.25;100.00;102475.50;5074004;28;20033;-72
2022/09/22 05:27:56;;;;;;;10.35;7.63;;;;;;;4.21;100.00;102474.78;5073266;28;20380;-72
2022/09/22 05:30:24;;;;;;;19.02;10.45;;;;;;;4.19;100.00;102478.38;5055192;28;20040;-72
2022/09/22 05:32:50;;;;;;;12.27;7.50;;;;;;;4.21;100.00;102481.81;5073102;28;20487;-72
2022/09/22 05:35:18;;;;;;;18.55;11.02;;;;;;;4.18;100.00;102474.91;5073147;28;20024;-73
2022/09/22 05:37:47;;;;;;;14.65;8.85;;;;;;;4.21;100.00;102480.03;5056148;28;20029;-70
2022/09/22 05:40:13;;;;;;;13.23;8.65;;;;;;;4.19;100.00;102478.38;5073181;28;20029;-71
2022/09/22 05:42:50;;;;;;;9.38;7.57;;;;;;;4.19;100.00;102479.22;5072996;28;20146;-71
2022/09/22 05:45:17;;;;;;;11.32;7.30;;;;;;;4.20;100.00;102477.47;5072701;28;20107;-70
2022/09/22 05:47:42;;;;;;;23.88;12.15;;;;;;;4.29;100.00;102487.66;5054599;28;20032;-70
2022/09/22 05:50:10;;;;;;;20.52;12.13;;;;;;;4.34;100.00;102487.47;5072967;28;20066;-71
2022/09/22 05:52:36;;;;;;;23.98;13.68;;;;;;;4.37;100.00;102485.59;5073189;28;20114;-72
2022/09/22 05:55:01;;;;;;;18.42;11.10;;;;;;;4.41;100.00;102487.19;5072742;28;20357;-71
2022/09/22 05:57:27;;;;;;;19.38;11.30;;;;;;;4.46;100.00;102483.50;5073780;28;20033;-72
2022/09/22 05:59:54;;;;;;;29.55;14.20;;;;;;;4.49;100.00;102476.34;5073048;28;20056;-69
2022/09/22 06:02:22;;;;;;;25.38;14.45;;;;;;;4.55;100.00;102483.16;5037656;28;20028;-71
2022/09/22 06:04:47;;;;;;;17.42;10.18;;;;;;;4.60;100.00;102483.84;5072662;28;20029;-70
2022/09/22 06:07:13;;;;;;;27.02;14.77;;;;;;;4.63;100.00;102480.22;5072128;28;20075;-70
2022/09/22 06:09:38;;;;;;;16.65;10.50;;;;;;;4.67;100.00;102476.53;5073476;28;20036;-71
2022/09/22 06:12:05;;;;;;;18.58;10.10;;;;;;;4.70;100.00;102476.41;5073247;28;20469;-71
2022/09/22 06:14:31;;;;;;;27.50;14.05;;;;;;;4.75;100.00;102474.47;5073100;28;20131;-71
2022/09/22 06:16:57;;;;;;;15.90;9.73;;;;;;;4.79;100.00;102489.22;5073253;28;20060;-70
2022/09/22 06:19:23;;;;;;;15.10;9.77;;;;;;;4.87;100.00;102488.94;5072748;28;20033;-70
2022/09/22 06:21:49;;;;;;;19.48;12.02;;;;;;;4.92;100.00;102477.28;5072777;28;20082;-70
2022/09/22 06:24:14;;;;;;;17.10;10.77;;;;;;;5.00;100.00;102478.75;5072716;28;20114;-71
2022/09/22 06:26:40;;;;;;;20.25;11.98;;;;;;;5.07;100.00;102481.06;5073468;28;20032;-70
2022/09/22 06:29:06;;;;;;;27.52;14.90;;;;;;;5.18;100.00;102480.63;5072731;28;20115;-71
2022/09/22 06:31:31;;;;;;;25.42;14.13;;;;;;;5.26;100.00;102469.75;5038086;28;20037;-70
2022/09/22 06:33:56;;;;;;;29.52;13.95;;;;;;;5.34;100.00;102478.19;5072413;28;20047;-69
2022/09/22 06:36:30;;;;;;;24.15;13.88;;;;;;;5.40;100.00;102470.00;5072536;28;20117;-70
2022/09/22 06:38:57;;;;;;;27.58;13.98;;;;;;;5.47;100.00;102478.53;5074177;28;20127;-71
2022/09/22 06:41:30;;;;;;;25.08;13.30;;;;;;;5.51;100.00;102472.22;5076051;28;20107;-71
2022/09/22 06:43:55;;;;;;;19.70;12.13;;;;;;;5.61;100.00;102475.28;5075984;28;20036;-71
2022/09/22 06:46:25;;;;;;;24.15;14.35;;;;;;;5.71;100.00;102470.50;5058010;28;20035;-71
2022/09/22 06:48:56;;;;;;;22.55;12.45;;;;;;;5.79;100.00;102468.34;5076144;28;20115;-71
2022/09/22 06:51:28;;;;;;;21.83;13.53;;;;;;;5.90;100.00;102473.19;5075889;28;20049;-71
2022/09/22 06:53:54;;;;;;;30.20;17.52;;;;;;;6.02;100.00;102458.56;5076087;28;20094;-71
2022/09/22 06:56:24;;;;;;;35.78;18.63;;;;;;;6.13;100.00;102458.94;5075899;28;20094;-70
2022/09/22 06:58:50;;;;;;;34.95;19.23;;;;;;;6.24;100.00;102456.66;5076222;28;20039;-71
2022/09/22 07:01:18;;;;;;;36.08;19.38;;;;;;;6.35;100.00;102462.28;5075800;28;20028;-73
2022/09/22 07:03:44;;;;;;;38.75;21.13;;;;;;;6.47;100.00;102466.16;5075790;28;20036;-71
2022/09/22 07:06:12;;;;;;;36.67;20.63;;;;;;;6.59;100.00;102467.34;5075590;28;20029;-71
2022/09/22 07:08:38;;;;;;;44.83;22.60;;;;;;;6.70;100.00;102464.19;5075820;28;20447;-72
2022/09/22 07:11:07;;;;;;;40.15;21.98;;;;;;;6.80;100.00;102456.69;5075886;28;20032;-71
2022/09/22 07:13:38;;;;;;;41.72;22.77;;;;;;;6.92;100.00;102460.50;5075562;28;20131;-72
2022/09/22 07:16:09;;;;;;;42.13;22.90;;;;;;;7.02;100.00;102461.78;5076463;28;20029;-71
2022/09/22 07:18:41;;;;;;;37.45;21.67;;;;;;;7.10;100.00;102461.38;5058577;28;20028;-71
2022/09/22 07:21:09;;;;;;;35.95;20.40;;;;;;;7.17;100.00;102453.06;5075872;28;20457;-70
2022/09/22 07:23:35;;;;;;;35.83;21.95;;;;;;;7.25;100.00;102450.00;5075542;28;20029;-70
2022/09/22 07:26:05;;;;;;;41.10;24.25;;;;;;;7.34;100.00;102452.19;5075511;28;20487;-69
2022/09/22 07:28:32;;;;;;;38.35;23.02;;;;;;;7.46;100.00;102453.34;5075150;28;20035;-69
2022/09/22 07:31:16;;;;;;;47.83;27.83;;;;;;;7.61;100.00;102450.84;5075499;28;20184;-69
2022/09/22 07:33:43;;;;;;;41.30;24.80;;;;;;;7.71;100.00;102455.56;5058093;28;20322;-69
2022/09/22 07:36:12;;;;;;;40.38;24.75;;;;;;;7.82;100.00;102449.69;5075626;28;20039;-69
2022/09/22 07:38:39;;;;;;;45.50;26.75;;;;;;;7.94;100.00;102449.06;5075192;28;20468;-71
2022/09/22 07:41:08;;;;;;;43.28;26.05;;;;;;;8.09;100.00;102463.28;5075163;28;20068;-69
2022/09/22 07:43:34;;;;;;;43.83;25.27;;;;;;;8.25;100.00;102457.13;5074965;28;20444;-71
2022/09/22 07:45:59;;;;;;;40.05;24.70;;;;;;;8.42;100.00;102456.19;5057350;28;20040;-71
2022/09/22 07:48:37;;;;;;;40.28;24.65;;;;;;;8.60;100.00;102454.38;5075417;28;20483;-69
2022/09/22 07:51:07;;;;;;;35.92;23.15;;;;;;;8.77;100.00;102446.28;5074693;28;20127;-69
2022/09/22 07:53:34;;;;;;;33.63;22.43;;;;;;;8.94;100.00;102449.75;5075442;28;20088;-71
2022/09/22 07:56:11;;;;;;;30.08;21.63;;;;;;;9.10;100.00;102444.41;5075105;28;20422;-70
2022/09/22 07:58:43;;;;;;;26.58;20.05;;;;;;;9.31;100.00;102442.28;5057093;28;20370;-72
2022/09/22 08:01:09;;;;;;;28.65;19.17;;;;;;;9.71;100.00;102443.38;5075304;28;20079;-73
2022/09/22 08:03:36;;;;;;;26.83;18.45;;;;;;;10.34;100.00;102441.25;5056919;28;20073;-72
2022/09/22 08:06:10;;;;;;;20.65;17.33;;;;;;;10.82;100.00;102446.16;5075316;28;20055;-73
2022/09/22 08:08:54;;;;;;;18.38;14.88;;;;;;;11.16;100.00;102443.91;5075368;28;20033;-72
2022/09/22 08:11:28;;;;;;;21.27;15.50;;;;;;;11.52;100.00;102437.00;5074885;28;20441;-72
2022/09/22 08:13:59;;;;;;;24.30;14.85;;;;;;;11.81;100.00;102432.31;5074653;28;20036;-71
2022/09/22 08:16:27;;;;;;;21.35;14.38;;;;;;;12.01;100.00;102430.06;5074899;28;20445;-75
2022/09/22 08:18:58;;;;;;;18.50;14.02;;;;;;;12.27;100.00;102430.88;5074499;28;20021;-72
2022/09/22 08:21:34;;;;;;;19.15;13.35;;;;;;;12.57;100.00;102424.25;5074642;28;20032;-71
2022/09/22 08:24:04;;;;;;;16.95;12.43;;;;;;;12.85;100.00;102420.38;5074226;28;20504;-72
2022/09/22 08:26:29;;;;;;;19.00;10.45;;;;;;;13.22;100.00;102422.91;5074422;28;20035;-72
2022/09/22 08:28:56;;;;;;;20.92;12.00;;;;;;;13.60;100.00;102417.41;5074357;28;20469;-71
2022/09/22 08:31:23;;;;;;;18.77;11.57;;;;;;;14.05;100.00;102428.97;5074214;28;20082;-71
2022/09/22 08:33:53;;;;;;;18.23;11.73;;;;;;;14.71;100.00;102416.53;5074015;28;20024;-71
2022/09/22 08:36:18;;;;;;;15.00;11.27;;;;;;;15.33;96.35;102426.47;5074092;28;20063;-71
2022/09/22 08:38:48;;;;;;;18.75;11.00;;;;;;;15.78;88.20;102419.06;5074145;28;20035;-71
2022/09/22 08:41:37;;;;;;;15.15;9.85;;;;;;;16.20;81.45;102411.72;5073844;28;20483;-69
2022/09/22 08:44:16;;;;;;;18.48;10.55;;;;;;;16.72;79.08;102413.34;5074330;28;20032;-68
2022/09/22 08:46:46;;;;;;;17.20;9.23;;;;;;;16.95;75.68;102413.94;5074463;28;20028;-70
2022/09/22 08:52:37;;;;;;;11.10;8.73;;;;;;;17.72;71.77;102406.66;5073380;28;20059;-70
2022/09/22 08:55:06;;;;;;;15.70;9.55;;;;;;;18.88;64.34;102408.78;5074236;28;20115;-70
2022/09/22 08:57:55;;;;;;;16.35;8.68;;;;;;;20.35;56.85;102407.88;5073720;28;20094;-71
2022/09/22 09:00:21;;;;;;;11.30;7.88;;;;;;;20.91;52.42;102405.41;5073881;28;20031;-70
2022/09/22 09:03:17;;;;;;;16.55;8.15;;;;;;;21.21;53.09;102410.28;5072959;28;20115;-71
2022/09/22 09:06:12;;;;;;;13.18;8.95;;;;;;;22.10;49.99;102407.47;5073828;28;20067;-71
2022/09/22 09:08:56;;;;;;;11.50;8.02;;;;;;;22.64;45.95;102409.34;5051832;28;20048;-71
2022/09/22 09:11:33;;;;;;;12.18;7.85;;;;;;;23.01;47.00;102411.25;5073623;28;20020;-71
2022/09/22 09:14:22;;;;;;;13.57;7.30;;;;;;;23.23;43.75;102412.25;5074106;28;20111;-72
2022/09/22 09:17:02;;;;;;;13.45;7.72;;;;;;;23.46;42.71;102426.78;5073108;28;20035;-71
2022/09/22 09:19:37;;;;;;;11.48;7.57;;;;;;;23.59;41.45;102413.41;5073571;28;20029;-71
2022/09/22 09:22:30;;;;;;;11.90;7.13;;;;;;;23.32;41.69;102412.16;5073322;28;20028;-71
2022/09/22 09:25:02;;;;;;;15.63;7.78;;;;;;;22.75;43.12;102422.50;5073896;28;20107;-71
2022/09/22 09:27:33;;;;;;;11.55;7.75;;;;;;;21.96;44.20;102417.19;5073213;28;20025;-71
2022/09/22 09:30:05;;;;;;;12.90;7.90;;;;;;;21.44;44.81;102424.78;5073325;28;20071;-71
2022/09/22 09:32:49;;;;;;;16.90;7.53;;;;;;;21.19;46.73;102421.28;5073897;28;20090;-72
2022/09/22 09:35:18;;;;;;;18.92;7.45;;;;;;;21.83;44.88;102413.19;5073502;28;20029;-72
2022/09/22 09:37:46;;;;;;;10.45;7.00;;;;;;;21.98;43.75;102412.44;5073505;28;20052;-71
2022/09/22 09:40:17;;;;;;;11.60;7.25;;;;;;;22.08;45.41;102418.50;5072922;28;20123;-71
2022/09/22 09:42:52;;;;;;;14.18;7.55;;;;;;;22.78;44.39;102418.56;5073429;28;20032;-71
2022/09/22 09:45:25;;;;;;;11.68;7.15;;;;;;;23.53;41.44;102412.28;5073904;28;20457;-71
2022/09/22 09:48:05;;;;;;;13.00;6.70;;;;;;;24.18;41.35;102414.34;5074160;28;20032;-72
2022/09/22 09:50:31;;;;;;;10.45;7.03;;;;;;;24.78;37.57;102413.13;5073524;28;20029;-72
2022/09/22 09:52:58;;;;;;;11.77;7.15;;;;;;;24.91;39.48;102411.53;5073140;28;20048;-72
2022/09/22 09:55:25;;;;;;;13.13;5.97;;;;;;;24.85;40.53;102420.50;5073048;28;20060;-72
2022/09/22 09:58:04;;;;;;;8.20;6.60;;;;;;;25.15;36.03;102405.66;5073330;28;20079;-72
2022/09/22 10:00:30;;;;;;;8.88;6.03;;;;;;;25.19;38.74;102402.56;5073449;28;20032;-72
2022/09/22 10:03:13;;;;;;;11.20;6.28;;;;;;;24.91;36.63;102392.50;5073001;28;20033;-72
2022/09/22 10:05:39;;;;;;;10.70;5.72;;;;;;;25.20;34.95;102399.63;5072818;28;20498;-72
2022/09/22 10:08:23;;;;;;;12.68;5.57;;;;;;;25.17;36.03;102392.69;5073224;28;20032;-72
2022/09/22 10:10:58;;;;;;;10.15;5.60;;;;;;;25.47;38.41;102389.75;5073810;28;20029;-73
2022/09/22 10:13:37;;;;;;;11.40;5.75;;;;;;;25.73;36.50;102385.47;5072918;28;20062;-72
2022/09/22 10:16:24;;;;;;;10.98;5.45;;;;;;;25.42;36.10;102386.78;5055054;28;20115;-72
2022/09/22 10:18:57;;;;;;;6.15;5.50;;;;;;;24.99;35.57;102385.03;5073688;28;20043;-75
2022/09/22 10:21:22;;;;;;;8.00;4.47;;;;;;;23.74;35.74;102384.34;5073002;28;20103;-74
2022/09/22 10:23:52;;;;;;;9.20;5.15;;;;;;;23.53;37.51;102374.25;5072861;28;20112;-75
2022/09/22 10:26:25;;;;;;;8.20;4.57;;;;;;;23.16;39.73;102380.59;5072996;28;20025;-74
2022/09/22 10:29:08;;;;;;;9.90;4.20;;;;;;;22.54;39.96;102377.03;5072735;28;20124;-75
2022/09/22 10:31:37;;;;;;;14.13;4.20;;;;;;;21.83;39.04;102366.28;5072890;28;20477;-74
2022/09/22 10:34:05;;;;;;;5.88;3.67;;;;;;;21.27;42.39;102375.28;5072674;28;20087;-75
2022/09/22 10:36:32;;;;;;;9.50;4.55;;;;;;;20.93;43.41;102370.09;5072847;28;20473;-75
2022/09/22 10:38:58;;;;;;;10.48;3.60;;;;;;;21.05;42.43;102360.59;5072934;28;20111;-75
2022/09/22 10:41:30;;;;;;;9.63;4.10;;;;;;;21.30;42.00;102360.53;5075004;28;20055;-75
2022/09/22 10:44:14;;;;;;;8.45;3.80;;;;;;;21.14;42.09;102350.59;5075922;28;20090;-75
2022/09/22 10:47:02;;;;;;;10.00;4.28;;;;;;;20.76;42.04;102344.91;5076277;28;20112;-76
2022/09/22 10:49:39;;;;;;;8.20;4.00;;;;;;;20.60;42.57;102346.56;5074303;28;20074;-75
2022/09/22 10:52:18;;;;;;;7.10;3.63;;;;;;;20.82;43.54;102348.78;5073461;28;20065;-73
2022/09/22 10:55:07;;;;;;;10.38;3.60;;;;;;;20.89;42.61;102350.63;5075586;28;20028;-74
2022/09/22 10:58:05;;;;;;;5.88;3.60;;;;;;;20.91;42.56;102345.06;5073936;28;20028;-73
2022/09/22 11:00:33;;;;;;;7.00;3.55;;;;;;;20.71;43.73;102342.72;5072747;28;20037;-73
2022/09/22 11:03:16;;;;;;;8.63;3.80;;;;;;;20.24;44.40;102344.19;5072258;28;20035;-73
2022/09/22 11:12:24;;;;;;;5.78;3.28;;;;;;;19.11;49.19;102330.91;5072659;28;20051;-73
2022/09/22 11:15:13;;;;;;;6.03;2.88;;;;;;;18.87;46.35;102325.34;5072761;28;20082;-74
2022/09/22 11:17:52;;;;;;;8.23;3.30;;;;;;;18.83;47.79;102330.19;5071758;28;20037;-72
2022/09/22 11:20:38;;;;;;;7.85;2.83;;;;;;;18.82;46.58;102334.75;5072238;28;20535;-73
2022/09/22 11:23:20;;;;;;;5.78;3.05;;;;;;;18.75;46.08;102325.59;5071748;28;20052;-73
2022/09/22 11:25:57;;;;;;;;;;;;;;;18.89;43.28;102326.88;5076078;28;20031;-72
2022/09/22 11:28:54;;;;;;;6.93;3.20;;;;;;;19.02;43.87;102313.81;5058451;28;20305;-73
2022/09/22 11:31:38;;;;;;;4.63;2.75;;;;;;;19.02;48.45;102318.38;5057865;28;20467;-73
2022/09/22 11:34:06;;;;;;;5.53;2.65;;;;;;;18.90;45.24;102314.25;5075765;28;20032;-74
2022/09/22 11:36:38;;;;;;;8.05;2.45;;;;;;;18.87;45.46;102311.84;5076607;28;20033;-74
2022/09/22 11:39:15;;;;;;;;;;;;;;;18.91;45.04;102310.53;5077130;28;20035;-75
2022/09/22 11:41:55;;;;;;;8.90;2.30;;;;;;;19.01;46.06;102309.44;5075301;28;19916;-74
2022/09/22 11:44:30;;;;;;;4.60;2.20;;;;;;;18.90;42.94;102304.31;5057984;28;20338;-75